Time;durP1;ratioP1;P1;durP2;ratioP2;P2;SDS_P1;SDS_P2;PMS_P1;PMS_P2;Temp;Humidity;BMP_temperature;BMP_pressure;BME280_temperature;BME280_humidity;BME280_pressure;Samples;Min_cycle;Max_cycle;Signal;HPM_P1;HPM_P2
2021/08/28 00:00:07;;;;;;;2.33;1.90;;;18.30;99.90;;;;;;6155419;23;20024;-83
2021/08/28 00:02:32;;;;;;;3.15;1.90;;;18.30;99.90;;;;;;6155898;23;20001;-82
2021/08/28 00:04:58;;;;;;;2.78;2.20;;;18.20;99.90;;;;;;6155837;23;20008;-82
2021/08/28 00:07:23;;;;;;;2.42;1.60;;;18.20;99.90;;;;;;6155792;23;20428;-82
2021/08/28 00:09:49;;;;;;;4.18;2.20;;;18.20;99.90;;;;;;6155719;23;20056;-82
2021/08/28 00:12:15;;;;;;;3.80;2.03;;;18.20;99.90;;;;;;6155909;23;20475;-83
2021/08/28 00:14:41;;;;;;;3.92;2.33;;;18.20;99.90;;;;;;6155912;23;20010;-83
2021/08/28 00:17:07;;;;;;;4.43;1.85;;;18.20;99.90;;;;;;6155809;23;20009;-84
2021/08/28 00:19:33;;;;;;;2.85;2.13;;;18.20;99.90;;;;;;6128992;23;19998;-84
2021/08/28 00:21:58;;;;;;;11.48;2.25;;;18.20;99.90;;;;;;6129718;23;20005;-83
2021/08/28 00:24:24;;;;;;;2.90;2.13;;;18.40;99.90;;;;;;6154297;23;20037;-83
2021/08/28 00:26:50;;;;;;;6.18;2.58;;;18.40;99.90;;;;;;6155880;23;20080;-83
2021/08/28 00:29:15;;;;;;;8.57;2.13;;;18.50;99.90;;;;;;6155674;23;20009;-83
2021/08/28 00:31:43;;;;;;;4.00;2.45;;;18.50;99.90;;;;;;6155622;23;20009;-83
2021/08/28 00:34:09;;;;;;;3.33;2.28;;;18.50;99.90;;;;;;6129513;23;20063;-83
2021/08/28 00:36:35;;;;;;;8.95;2.85;;;18.50;99.90;;;;;;6155961;23;20088;-83
2021/08/28 00:39:01;;;;;;;3.20;2.05;;;18.60;99.90;;;;;;6130509;23;20444;-83
2021/08/28 00:41:27;;;;;;;3.53;2.30;;;18.60;99.90;;;;;;6157815;23;20032;-82
2021/08/28 00:43:53;;;;;;;3.60;2.33;;;18.60;99.90;;;;;;6131682;23;20001;-83
2021/08/28 00:46:19;;;;;;;3.10;2.20;;;18.60;99.90;;;;;;6157527;23;20342;-83
2021/08/28 00:48:45;;;;;;;3.00;2.10;;;18.60;99.90;;;;;;6157624;23;20029;-83
2021/08/28 00:51:11;;;;;;;2.90;1.80;;;18.60;99.90;;;;;;6157696;23;20009;-83
2021/08/28 00:53:37;;;;;;;3.10;2.05;;;18.50;99.90;;;;;;6157683;23;19998;-83
2021/08/28 00:56:03;;;;;;;13.73;2.40;;;18.60;99.90;;;;;;6157439;23;20009;-82
2021/08/28 00:58:28;;;;;;;2.20;1.70;;;18.60;99.90;;;;;;6157568;23;20068;-82
2021/08/28 01:01:08;;;;;;;4.60;2.10;;;18.60;99.90;;;;;;6157265;23;20341;-83
2021/08/28 01:03:34;;;;;;;3.80;2.05;;;18.60;99.90;;;;;;6132102;23;20033;-83
2021/08/28 01:06:32;;;;;;;3.17;2.15;;;18.60;99.90;;;;;;6157596;23;20436;-82
2021/08/28 01:09:24;;;;;;;6.88;2.28;;;18.60;99.90;;;;;;6156166;23;20014;-83
2021/08/28 01:11:58;;;;;;;4.45;2.20;;;18.70;99.90;;;;;;6155854;23;20001;-82
2021/08/28 01:14:27;;;;;;;4.45;2.03;;;18.70;99.90;;;;;;6157422;23;20056;-83
2021/08/28 01:16:57;;;;;;;2.63;2.10;;;18.70;99.90;;;;;;6131114;23;20013;-83
2021/08/28 01:19:35;;;;;;;2.80;2.10;;;18.60;99.90;;;;;;6157226;23;20372;-84
2021/08/28 01:22:13;;;;;;;3.83;2.10;;;18.60;99.90;;;;;;6131227;23;20429;-84
2021/08/28 01:24:47;;;;;;;3.25;2.03;;;18.60;99.90;;;;;;6157525;23;20001;-83
2021/08/28 01:27:50;;;;;;;3.15;2.22;;;18.50;99.90;;;;;;6157472;23;20001;-83
2021/08/28 01:30:16;;;;;;;5.55;1.92;;;18.50;99.90;;;;;;6100948;23;20009;-83
2021/08/28 01:32:44;;;;;;;3.10;1.83;;;18.50;99.90;;;;;;6130592;23;20005;-83
2021/08/28 01:35:10;;;;;;;3.95;2.17;;;18.50;99.90;;;;;;6157388;23;20005;-83
2021/08/28 01:37:39;;;;;;;3.25;2.15;;;18.50;99.90;;;;;;6130758;23;20099;-83
2021/08/28 01:40:06;;;;;;;5.05;1.90;;;18.60;99.90;;;;;;6157003;23;20083;-83
2021/08/28 01:42:33;;;;;;;2.53;1.80;;;18.60;99.90;;;;;;6157267;23;20001;-83
2021/08/28 01:44:59;;;;;;;3.78;1.92;;;18.60;99.90;;;;;;6157351;23;20001;-83
2021/08/28 01:47:28;;;;;;;3.72;2.00;;;18.60;99.90;;;;;;6130967;23;20140;-83
2021/08/28 01:49:54;;;;;;;3.80;2.33;;;18.50;99.90;;;;;;6130777;23;20328;-83
2021/08/28 01:52:20;;;;;;;3.92;1.95;;;18.50;99.90;;;;;;6157182;23;20044;-83
2021/08/28 01:54:46;;;;;;;8.50;2.30;;;18.50;99.90;;;;;;6156889;23;19998;-83
2021/08/28 01:57:12;;;;;;;1.80;1.67;;;18.50;99.90;;;;;;6157118;23;20016;-83
2021/08/28 01:59:38;;;;;;;2.85;2.10;;;18.50;99.90;;;;;;6156745;23;20044;-83
2021/08/28 02:02:04;;;;;;;4.78;2.60;;;18.50;99.90;;;;;;6157374;23;20017;-82
2021/08/28 02:04:30;;;;;;;2.40;1.67;;;18.50;99.90;;;;;;6157139;23;20000;-84
2021/08/28 02:07:16;;;;;;;5.90;2.20;;;18.50;99.90;;;;;;6155299;23;20009;-82
2021/08/28 02:10:02;;;;;;;8.40;1.88;;;18.50;99.90;;;;;;6157069;23;20005;-83
2021/08/28 02:12:37;;;;;;;2.83;1.65;;;18.50;99.90;;;;;;6157014;23;20013;-83
2021/08/28 02:15:12;;;;;;;4.35;1.60;;;18.50;99.90;;;;;;6156766;23;20452;-82
2021/08/28 02:17:48;;;;;;;2.35;1.60;;;18.50;99.90;;;;;;6156912;23;20009;-83
2021/08/28 02:20:16;;;;;;;2.28;1.65;;;18.50;99.90;;;;;;6155533;23;20006;-83
2021/08/28 02:22:47;;;;;;;3.40;1.85;;;18.50;99.90;;;;;;6156655;23;20002;-84
2021/08/28 02:25:26;;;;;;;2.22;1.63;;;18.50;99.90;;;;;;6130618;23;20006;-84
2021/08/28 02:28:06;;;;;;;6.07;1.67;;;18.50;99.90;;;;;;6156842;23;19998;-83
2021/08/28 02:30:34;;;;;;;7.03;1.77;;;18.50;99.90;;;;;;6156926;23;20006;-83
2021/08/28 02:33:03;;;;;;;3.00;1.75;;;18.60;99.90;;;;;;6156556;23;20077;-83
2021/08/28 02:35:30;;;;;;;1.98;1.55;;;18.50;99.90;;;;;;6156676;23;20068;-84
2021/08/28 02:37:58;;;;;;;2.63;1.60;;;18.50;99.90;;;;;;6155015;23;20009;-83
2021/08/28 02:40:26;;;;;;;2.38;1.70;;;18.50;99.90;;;;;;6156629;23;20023;-83
2021/08/28 02:42:52;;;;;;;3.17;1.95;;;18.60;99.90;;;;;;6155119;23;20013;-82
2021/08/28 02:45:25;;;;;;;1.95;1.63;;;18.60;99.90;;;;;;6156620;23;20002;-83
2021/08/28 02:47:53;;;;;;;3.45;1.60;;;18.50;99.90;;;;;;6155025;23;20033;-82
2021/08/28 02:50:20;;;;;;;3.03;1.38;;;18.60;99.90;;;;;;6156604;23;19998;-83
2021/08/28 02:52:48;;;;;;;1.85;1.50;;;18.60;99.90;;;;;;6156511;23;20005;-83
2021/08/28 02:55:15;;;;;;;3.42;2.03;;;18.70;99.90;;;;;;6156625;23;20002;-83
2021/08/28 02:57:50;;;;;;;6.68;1.67;;;18.80;99.90;;;;;;6156389;23;20016;-83
2021/08/28 03:00:18;;;;;;;4.15;1.45;;;18.80;99.90;;;;;;6129944;23;20009;-82
2021/08/28 03:02:45;;;;;;;3.88;1.95;;;18.80;99.90;;;;;;6154549;23;20010;-82
2021/08/28 03:05:12;;;;;;;8.10;2.08;;;18.80;99.90;;;;;;6130433;23;20001;-83
2021/08/28 03:07:40;;;;;;;3.20;1.92;;;18.80;99.90;;;;;;6156552;23;20009;-83
2021/08/28 03:10:08;;;;;;;2.05;1.67;;;18.80;99.90;;;;;;6156405;23;20033;-83
2021/08/28 03:12:34;;;;;;;6.82;1.52;;;18.80;99.90;;;;;;6156120;23;20065;-84
2021/08/28 03:15:00;;;;;;;3.35;1.73;;;18.80;99.90;;;;;;6156218;23;20036;-83
2021/08/28 03:17:28;;;;;;;5.15;1.45;;;18.80;99.90;;;;;;6156234;23;20009;-83
2021/08/28 03:19:55;;;;;;;2.22;1.58;;;18.70;99.90;;;;;;6156437;23;20032;-83
2021/08/28 03:22:22;;;;;;;2.63;1.40;;;18.70;99.90;;;;;;6130199;23;20016;-83
2021/08/28 03:24:49;;;;;;;1.75;1.27;;;18.70;99.90;;;;;;6156184;23;19998;-83
2021/08/28 03:27:16;;;;;;;2.25;1.70;;;18.70;99.90;;;;;;6156108;23;20052;-83
2021/08/28 03:29:44;;;;;;;5.60;2.00;;;18.70;99.90;;;;;;6156301;23;20000;-83
2021/08/28 03:32:10;;;;;;;1.98;1.77;;;18.80;99.90;;;;;;6156363;23;20001;-82
2021/08/28 03:34:37;;;;;;;5.35;1.60;;;18.80;99.90;;;;;;6156138;23;19998;-83
2021/08/28 03:37:03;;;;;;;1.80;1.50;;;18.80;99.90;;;;;;6129494;23;20014;-83
2021/08/28 03:39:29;;;;;;;7.65;1.83;;;18.80;99.90;;;;;;6156256;23;20002;-83
2021/08/28 03:41:55;;;;;;;1.98;1.77;;;18.80;99.90;;;;;;6155674;23;20440;-83
2021/08/28 03:44:21;;;;;;;5.40;1.80;;;18.80;99.90;;;;;;6156141;23;20001;-83
2021/08/28 03:46:49;;;;;;;5.22;1.45;;;18.80;99.90;;;;;;6156197;23;20009;-83
2021/08/28 03:49:15;;;;;;;3.25;1.25;;;18.80;99.90;;;;;;6155926;23;20001;-82
2021/08/28 03:51:41;;;;;;;2.05;1.35;;;18.70;99.90;;;;;;6156074;23;20006;-83
2021/08/28 03:54:07;;;;;;;1.98;1.60;;;18.70;99.90;;;;;;6156048;23;20002;-82
2021/08/28 03:56:33;;;;;;;2.65;1.52;;;18.70;99.90;;;;;;6154195;23;20039;-83
2021/08/28 03:58:58;;;;;;;1.95;1.63;;;18.80;99.90;;;;;;6156015;23;20440;-83
2021/08/28 04:01:24;;;;;;;3.05;1.88;;;18.90;99.90;;;;;;6155768;23;20018;-82
2021/08/28 04:03:51;;;;;;;4.88;1.70;;;18.90;99.90;;;;;;6154498;23;20025;-83
2021/08/28 04:06:16;;;;;;;2.15;1.63;;;18.80;99.90;;;;;;6155673;23;20010;-83
2021/08/28 04:08:46;;;;;;;3.92;2.13;;;18.80;99.90;;;;;;6155781;23;20052;-82
2021/08/28 04:11:12;;;;;;;1.85;1.60;;;18.80;99.90;;;;;;6156328;23;20088;-83
2021/08/28 04:13:38;;;;;;;3.35;1.52;;;18.80;99.90;;;;;;6155781;23;20407;-83
2021/08/28 04:16:04;;;;;;;5.20;1.48;;;18.80;99.90;;;;;;6155817;23;20009;-83
2021/08/28 04:18:30;;;;;;;3.22;1.50;;;18.80;99.90;;;;;;6155917;23;20025;-83
2021/08/28 04:20:55;;;;;;;2.97;1.90;;;18.80;99.90;;;;;;6155596;23;20352;-83
2021/08/28 04:23:21;;;;;;;2.78;1.77;;;18.80;99.90;;;;;;6155481;23;20014;-83
2021/08/28 04:25:47;;;;;;;3.47;1.67;;;18.80;99.90;;;;;;6156091;23;20008;-83
2021/08/28 04:28:12;;;;;;;3.53;2.13;;;18.80;99.90;;;;;;6154248;23;20336;-83
2021/08/28 04:30:38;;;;;;;1.75;1.52;;;18.70;99.90;;;;;;6155704;23;20001;-83
2021/08/28 04:33:04;;;;;;;2.05;1.70;;;18.80;99.90;;;;;;6155478;23;20005;-82
2021/08/28 04:35:30;;;;;;;3.40;2.03;;;18.80;99.90;;;;;;6155489;23;20017;-83
2021/08/28 04:37:55;;;;;;;2.60;1.88;;;18.80;99.90;;;;;;6155595;23;20013;-83
2021/08/28 04:40:21;;;;;;;3.53;1.95;;;18.80;99.90;;;;;;6155757;23;20005;-82
2021/08/28 04:42:47;;;;;;;2.03;1.83;;;18.80;99.90;;;;;;6155553;23;20036;-84
2021/08/28 04:45:13;;;;;;;3.63;1.92;;;18.90;99.90;;;;;;6155345;23;19998;-83
2021/08/28 04:47:39;;;;;;;2.17;1.88;;;18.90;99.90;;;;;;6155970;23;20436;-83
2021/08/28 04:50:05;;;;;;;2.80;2.10;;;18.90;99.90;;;;;;6155636;23;20002;-83
2021/08/28 04:52:30;;;;;;;4.90;2.17;;;18.90;99.90;;;;;;6158911;23;20001;-83
2021/08/28 04:54:56;;;;;;;5.68;1.55;;;18.90;99.90;;;;;;6129704;23;20012;-83
2021/08/28 04:57:22;;;;;;;2.30;1.67;;;18.90;99.90;;;;;;6155589;23;20014;-82
2021/08/28 04:59:47;;;;;;;5.93;2.00;;;18.90;99.90;;;;;;6155212;23;20068;-82
2021/08/28 05:02:13;;;;;;;2.67;1.80;;;18.90;99.90;;;;;;6155678;23;20012;-82
2021/08/28 05:04:39;;;;;;;3.50;1.80;;;19.00;99.90;;;;;;6154112;23;20025;-83
2021/08/28 05:07:05;;;;;;;3.05;1.65;;;18.90;99.90;;;;;;6155578;23;19997;-82
2021/08/28 05:09:30;;;;;;;3.65;2.25;;;18.90;99.90;;;;;;6155909;23;20004;-83
2021/08/28 05:11:56;;;;;;;3.08;1.85;;;19.00;99.90;;;;;;6155529;23;20124;-83
2021/08/28 05:14:22;;;;;;;3.40;1.70;;;19.00;99.90;;;;;;6155644;23;20362;-83
2021/08/28 05:16:47;;;;;;;6.57;2.03;;;19.10;99.90;;;;;;6155266;23;20041;-82
2021/08/28 05:19:13;;;;;;;2.75;1.92;;;19.20;99.90;;;;;;6155628;23;19998;-83
2021/08/28 05:21:39;;;;;;;2.67;1.88;;;19.10;99.90;;;;;;6128987;23;20005;-83
2021/08/28 05:24:05;;;;;;;2.63;1.88;;;19.10;99.90;;;;;;6129375;23;20056;-83
2021/08/28 05:26:30;;;;;;;4.75;2.13;;;19.10;99.90;;;;;;6157111;23;20332;-83
2021/08/28 05:28:56;;;;;;;2.33;1.80;;;19.10;99.90;;;;;;6157548;23;20088;-83
2021/08/28 05:31:22;;;;;;;6.45;1.95;;;19.20;99.90;;;;;;6157199;23;20009;-83
2021/08/28 05:33:47;;;;;;;4.05;1.98;;;19.20;99.90;;;;;;6157178;23;20005;-83
2021/08/28 05:36:13;;;;;;;2.70;1.80;;;19.20;99.90;;;;;;6157002;23;20084;-83
2021/08/28 05:38:38;;;;;;;3.63;2.10;;;19.30;99.90;;;;;;6155632;23;20025;-83
2021/08/28 05:41:04;;;;;;;2.50;1.95;;;19.30;99.90;;;;;;6156938;23;20056;-83
2021/08/28 05:43:30;;;;;;;4.30;1.90;;;19.30;99.90;;;;;;6157245;23;20002;-83
2021/08/28 05:45:56;;;;;;;3.53;2.15;;;19.40;99.90;;;;;;6157176;23;20006;-84
2021/08/28 05:48:22;;;;;;;7.88;2.10;;;19.40;99.90;;;;;;6130749;23;20032;-83
2021/08/28 05:50:48;;;;;;;2.70;1.92;;;19.40;99.90;;;;;;6156831;23;20001;-83
2021/08/28 05:53:14;;;;;;;7.30;2.30;;;19.30;99.90;;;;;;6157125;23;20053;-82
2021/08/28 05:55:40;;;;;;;4.53;1.95;;;19.30;99.90;;;;;;6157063;23;20080;-83
2021/08/28 05:58:06;;;;;;;2.78;2.05;;;19.20;99.90;;;;;;6155223;23;20384;-83
2021/08/28 06:00:31;;;;;;;3.00;2.03;;;19.10;99.90;;;;;;6156625;23;20021;-82
2021/08/28 06:02:57;;;;;;;6.43;2.30;;;19.10;99.90;;;;;;6156977;23;20002;-83
2021/08/28 06:05:23;;;;;;;3.95;2.40;;;19.10;99.90;;;;;;6156723;23;20421;-82
2021/08/28 06:07:48;;;;;;;4.57;2.42;;;19.10;99.90;;;;;;6156785;23;20048;-83
2021/08/28 06:10:14;;;;;;;2.92;2.28;;;19.00;99.90;;;;;;6156811;23;20006;-82
2021/08/28 06:12:40;;;;;;;4.72;2.28;;;18.90;99.90;;;;;;6157376;23;20009;-83
2021/08/28 06:15:07;;;;;;;3.75;2.47;;;18.90;99.90;;;;;;6156900;23;19998;-83
2021/08/28 06:17:34;;;;;;;6.38;2.25;;;19.00;99.90;;;;;;6130617;23;20064;-82
2021/08/28 06:20:00;;;;;;;4.78;2.10;;;19.00;99.90;;;;;;6156742;23;19997;-82
2021/08/28 06:22:25;;;;;;;8.45;2.35;;;19.00;99.90;;;;;;6156451;23;20328;-82
2021/08/28 06:24:51;;;;;;;6.70;2.72;;;19.00;99.90;;;;;;6156756;23;20004;-82
2021/08/28 06:27:17;;;;;;;3.97;2.28;;;18.90;99.90;;;;;;6156488;23;20005;-82
2021/08/28 06:29:42;;;;;;;4.45;2.55;;;18.90;99.90;;;;;;6156548;23;20036;-82
2021/08/28 06:32:08;;;;;;;5.47;2.78;;;19.00;99.90;;;;;;6156685;23;20023;-81
2021/08/28 06:34:34;;;;;;;3.50;2.60;;;19.00;99.90;;;;;;6157511;23;19998;-83
2021/08/28 06:36:59;;;;;;;4.90;2.50;;;19.00;99.90;;;;;;6155899;23;20040;-81
2021/08/28 06:39:25;;;;;;;4.75;2.58;;;19.00;99.90;;;;;;6156600;23;20325;-82
2021/08/28 06:41:51;;;;;;;3.25;2.20;;;19.00;99.90;;;;;;6156639;23;20107;-82
2021/08/28 06:44:17;;;;;;;6.10;2.33;;;19.00;99.90;;;;;;6156925;23;20013;-82
2021/08/28 06:46:42;;;;;;;3.28;2.17;;;18.90;99.90;;;;;;6130340;23;20433;-82
2021/08/28 06:49:08;;;;;;;5.07;2.03;;;18.90;99.90;;;;;;6156076;23;20044;-82
2021/08/28 06:51:35;;;;;;;3.28;2.42;;;19.00;99.90;;;;;;6156446;23;20001;-82
2021/08/28 06:54:01;;;;;;;4.95;2.55;;;19.00;99.90;;;;;;6156373;23;20005;-82
2021/08/28 06:56:27;;;;;;;5.63;2.67;;;19.00;99.90;;;;;;6129685;23;20555;-83
2021/08/28 06:58:53;;;;;;;5.00;2.70;;;19.00;99.90;;;;;;6156147;23;20025;-82
2021/08/28 07:01:19;;;;;;;6.45;2.58;;;19.00;99.90;;;;;;6156173;23;20017;-83
2021/08/28 07:03:45;;;;;;;3.10;2.17;;;19.00;99.90;;;;;;6156260;23;20001;-82
2021/08/28 07:06:11;;;;;;;2.47;1.90;;;19.10;99.90;;;;;;6156309;23;20016;-82
2021/08/28 07:08:37;;;;;;;4.70;2.30;;;19.20;99.90;;;;;;6156704;23;20001;-82
2021/08/28 07:11:04;;;;;;;9.38;2.53;;;19.20;99.90;;;;;;6130367;23;20336;-82
2021/08/28 07:13:30;;;;;;;5.50;2.15;;;19.30;99.90;;;;;;6156525;23;20068;-82
2021/08/28 07:15:56;;;;;;;2.80;2.03;;;19.30;99.90;;;;;;6156063;23;20005;-83
2021/08/28 07:18:22;;;;;;;4.68;2.40;;;19.30;99.90;;;;;;6156209;23;20022;-82
2021/08/28 07:20:47;;;;;;;3.95;2.10;;;19.40;99.90;;;;;;6156076;23;20008;-83
2021/08/28 07:23:13;;;;;;;2.55;1.67;;;19.40;99.90;;;;;;6156089;23;20273;-81
2021/08/28 07:25:39;;;;;;;2.75;2.05;;;19.50;99.90;;;;;;6156648;23;20027;-80
2021/08/28 07:28:09;;;;;;;2.45;1.75;;;19.50;99.90;;;;;;6157836;23;20002;-82
2021/08/28 07:30:35;;;;;;;4.55;2.38;;;19.60;99.90;;;;;;6157120;23;19998;-84
2021/08/28 07:33:01;;;;;;;4.50;2.80;;;19.60;99.90;;;;;;6156044;23;20017;-82
2021/08/28 07:35:27;;;;;;;2.55;1.92;;;19.60;99.90;;;;;;6155721;23;20443;-81
2021/08/28 07:37:53;;;;;;;3.33;2.15;;;19.60;99.90;;;;;;6156383;23;20088;-82
2021/08/28 07:40:20;;;;;;;3.45;2.17;;;19.70;99.90;;;;;;6156053;23;20429;-83
2021/08/28 07:42:45;;;;;;;2.88;2.10;;;19.70;99.90;;;;;;6155984;23;20320;-84
2021/08/28 07:45:11;;;;;;;4.82;2.58;;;19.80;99.90;;;;;;6154565;23;20001;-82
2021/08/28 07:47:37;;;;;;;6.43;2.78;;;19.90;99.90;;;;;;6155547;23;20336;-80
2021/08/28 07:50:03;;;;;;;4.05;2.38;;;20.10;99.90;;;;;;6129965;23;20037;-83
2021/08/28 07:52:29;;;;;;;5.40;2.25;;;20.10;99.90;;;;;;6155899;23;20498;-83
2021/08/28 07:54:55;;;;;;;6.28;3.22;;;20.20;99.90;;;;;;6156022;23;20037;-81
2021/08/28 07:57:20;;;;;;;2.83;1.92;;;20.10;99.90;;;;;;6129855;23;20036;-83
2021/08/28 07:59:46;;;;;;;5.82;2.17;;;20.00;99.90;;;;;;6155576;23;20436;-84
2021/08/28 08:02:12;;;;;;;3.85;2.33;;;19.90;99.90;;;;;;6129645;23;20322;-84
2021/08/28 08:04:37;;;;;;;3.42;1.90;;;19.90;99.90;;;;;;6156202;23;20001;-84
2021/08/28 08:07:03;;;;;;;3.15;2.10;;;19.90;99.90;;;;;;6155931;23;20351;-83
2021/08/28 08:09:29;;;;;;;3.15;1.88;;;19.80;99.90;;;;;;6156195;23;20048;-83
2021/08/28 08:11:54;;;;;;;3.72;2.35;;;19.80;99.90;;;;;;6155695;23;20329;-83
2021/08/28 08:14:20;;;;;;;3.15;2.08;;;19.80;99.90;;;;;;6129804;23;19998;-82
2021/08/28 08:16:46;;;;;;;3.05;2.08;;;19.80;99.90;;;;;;6155649;23;20018;-83
2021/08/28 08:19:12;;;;;;;2.67;1.83;;;19.80;99.90;;;;;;6155955;23;20002;-81
2021/08/28 08:21:38;;;;;;;4.05;2.25;;;19.80;99.90;;;;;;6155974;23;19998;-81
2021/08/28 08:24:04;;;;;;;3.03;1.92;;;19.80;99.90;;;;;;6155918;23;20049;-83
2021/08/28 08:26:30;;;;;;;7.20;1.98;;;19.70;99.90;;;;;;6156196;23;20009;-82
2021/08/28 08:28:56;;;;;;;4.25;2.20;;;19.70;99.90;;;;;;6155828;23;20006;-83
2021/08/28 08:31:22;;;;;;;2.70;2.00;;;19.70;99.90;;;;;;6155428;23;20131;-83
2021/08/28 08:33:48;;;;;;;4.03;1.77;;;19.70;99.90;;;;;;6153963;23;20037;-86
2021/08/28 08:36:13;;;;;;;3.05;2.13;;;19.70;99.90;;;;;;6156042;23;20112;-84
2021/08/28 08:38:39;;;;;;;5.35;2.20;;;19.70;99.90;;;;;;6129455;23;20032;-84
2021/08/28 08:41:05;;;;;;;5.50;1.98;;;19.70;99.90;;;;;;6155837;23;20009;-82
2021/08/28 08:43:32;;;;;;;4.32;2.35;;;19.70;99.90;;;;;;6155450;23;20413;-82
2021/08/28 08:45:58;;;;;;;14.15;2.25;;;19.80;99.90;;;;;;6154080;23;20005;-81
2021/08/28 08:48:25;;;;;;;3.78;2.47;;;19.80;99.90;;;;;;6155663;23;20431;-80
2021/08/28 08:50:52;;;;;;;4.85;2.53;;;19.80;99.90;;;;;;6155500;23;20009;-81
2021/08/28 08:53:24;;;;;;;4.47;2.20;;;19.70;99.90;;;;;;6155538;23;20544;-84
2021/08/28 08:55:52;;;;;;;4.20;2.38;;;19.80;99.90;;;;;;6155565;23;20001;-82
2021/08/28 08:58:18;;;;;;;3.15;2.10;;;19.80;99.90;;;;;;6129287;23;20002;-83
2021/08/28 09:00:44;;;;;;;3.03;2.40;;;19.80;99.90;;;;;;6125629;23;20468;-83
2021/08/28 09:03:11;;;;;;;5.45;3.33;;;19.90;99.90;;;;;;6128027;23;20006;-84
2021/08/28 09:05:36;;;;;;;7.53;2.63;;;19.90;99.90;;;;;;6127816;23;20085;-83
2021/08/28 09:08:02;;;;;;;3.22;2.30;;;20.00;99.90;;;;;;6128121;23;20043;-82
2021/08/28 09:10:28;;;;;;;4.93;2.22;;;20.00;99.90;;;;;;6127948;23;20444;-83
2021/08/28 09:12:54;;;;;;;3.70;2.60;;;20.00;99.90;;;;;;6127859;23;20031;-82
2021/08/28 09:15:20;;;;;;;3.17;2.30;;;20.10;99.90;;;;;;6127990;23;20413;-84
2021/08/28 09:17:58;;;;;;;3.42;2.65;;;20.10;99.90;;;;;;6127607;23;20017;-81
2021/08/28 09:20:25;;;;;;;9.73;2.67;;;20.10;99.90;;;;;;6128099;23;20424;-82
2021/08/28 09:23:03;;;;;;;3.08;2.03;;;20.20;99.90;;;;;;6128306;23;20064;-83
2021/08/28 09:25:29;;;;;;;12.65;2.25;;;20.20;99.90;;;;;;6128003;23;20002;-86
2021/08/28 09:27:54;;;;;;;3.80;2.30;;;20.20;99.90;;;;;;6127797;23;20005;-84
2021/08/28 09:30:34;;;;;;;3.28;2.33;;;20.20;99.90;;;;;;6127676;23;20081;-82
2021/08/28 09:33:07;;;;;;;3.50;2.60;;;20.20;99.90;;;;;;6128152;23;20460;-83
2021/08/28 09:35:39;;;;;;;6.07;2.40;;;20.40;99.90;;;;;;6127778;23;20016;-83
2021/08/28 09:38:09;;;;;;;3.70;2.17;;;20.40;99.90;;;;;;6127592;23;20002;-84
2021/08/28 09:40:58;;;;;;;6.85;2.10;;;20.50;99.90;;;;;;6127148;23;20025;-85
2021/08/28 09:43:25;;;;;;;4.93;2.10;;;20.60;99.90;;;;;;6126878;23;20461;-84
2021/08/28 09:45:53;;;;;;;2.65;2.00;;;20.60;99.90;;;;;;6126929;23;20049;-82
2021/08/28 09:48:26;;;;;;;7.88;2.42;;;20.70;99.90;;;;;;6125484;23;20314;-79
2021/08/28 09:50:54;;;;;;;6.55;2.13;;;20.90;99.90;;;;;;6150248;23;20391;-82
2021/08/28 09:53:28;;;;;;;7.38;2.33;;;21.20;99.90;;;;;;6126775;23;19994;-81
2021/08/28 09:56:01;;;;;;;4.53;2.28;;;21.30;99.90;;;;;;6127851;23;20006;-82
2021/08/28 09:58:31;;;;;;;5.68;2.20;;;21.50;99.90;;;;;;6150943;23;20006;-81
2021/08/28 10:01:02;;;;;;;2.63;1.98;;;21.60;99.90;;;;;;6148463;23;20027;-83
2021/08/28 10:03:29;;;;;;;3.30;2.10;;;21.80;99.90;;;;;;6157194;23;19997;-84
2021/08/28 10:05:55;;;;;;;2.83;2.10;;;22.00;99.90;;;;;;6158944;23;20001;-84
2021/08/28 10:08:21;;;;;;;3.00;2.38;;;22.20;99.90;;;;;;6157554;23;20508;-85
2021/08/28 10:10:49;;;;;;;2.78;1.92;;;22.40;99.90;;;;;;6130664;23;20009;-83
2021/08/28 10:13:17;;;;;;;7.05;2.45;;;22.50;99.90;;;;;;6156021;23;20006;-84
2021/08/28 10:15:44;;;;;;;3.33;2.10;;;22.80;99.90;;;;;;6129552;23;20005;-83
2021/08/28 10:18:11;;;;;;;5.28;2.30;;;23.10;99.90;;;;;;6156068;23;20068;-84
2021/08/28 10:20:39;;;;;;;4.47;2.58;;;23.20;99.90;;;;;;6155304;23;20017;-82
2021/08/28 10:23:07;;;;;;;4.40;2.60;;;23.20;99.90;;;;;;6155885;23;20488;-83
2021/08/28 10:25:37;;;;;;;5.25;2.35;;;23.20;99.60;;;;;;6130464;23;20001;-83
2021/08/28 10:28:04;;;;;;;3.00;1.90;;;23.10;99.80;;;;;;6155988;23;20002;-81
2021/08/28 10:30:30;;;;;;;3.95;2.33;;;23.00;99.90;;;;;;6155511;23;20425;-84
2021/08/28 10:32:56;;;;;;;6.68;2.35;;;23.20;99.40;;;;;;6154075;23;20015;-83
2021/08/28 10:35:22;;;;;;;2.97;2.00;;;23.00;99.00;;;;;;6155911;23;20004;-83
2021/08/28 10:37:49;;;;;;;3.47;2.35;;;22.90;99.20;;;;;;6129615;23;20452;-84
2021/08/28 10:40:20;;;;;;;2.70;1.92;;;22.70;99.10;;;;;;6130382;23;20005;-81
2021/08/28 10:42:49;;;;;;;3.65;2.20;;;22.50;99.20;;;;;;6130462;23;20060;-83
2021/08/28 10:45:14;;;;;;;3.42;1.80;;;22.50;99.40;;;;;;6130341;23;20009;-82
2021/08/28 10:47:44;;;;;;;12.25;2.40;;;22.40;99.60;;;;;;6156628;23;20001;-82
2021/08/28 10:50:12;;;;;;;3.78;2.30;;;22.60;99.20;;;;;;6156469;23;20005;-84
2021/08/28 10:52:41;;;;;;;3.88;2.05;;;22.60;99.20;;;;;;6155636;23;20006;-80
2021/08/28 10:55:11;;;;;;;2.40;1.83;;;22.60;99.40;;;;;;6155405;23;20436;-81
2021/08/28 10:57:38;;;;;;;3.65;1.90;;;22.50;99.20;;;;;;6155688;23;20010;-82
2021/08/28 11:00:16;;;;;;;3.83;2.13;;;22.50;99.20;;;;;;6155283;23;20467;-81
2021/08/28 11:02:50;;;;;;;5.32;2.10;;;22.40;99.70;;;;;;6154777;23;20013;-84
2021/08/28 11:05:27;;;;;;;5.15;2.15;;;22.40;99.60;;;;;;6156324;23;20428;-82
2021/08/28 11:07:57;;;;;;;3.15;2.17;;;22.40;99.50;;;;;;6153635;23;20017;-82
2021/08/28 11:10:26;;;;;;;7.75;2.10;;;22.40;98.80;;;;;;6154629;23;20519;-83
2021/08/28 11:12:52;;;;;;;2.55;2.08;;;22.20;98.60;;;;;;6155457;23;20005;-84
2021/08/28 11:15:30;;;;;;;2.35;1.70;;;22.10;99.10;;;;;;6155560;23;20009;-80
2021/08/28 11:17:57;;;;;;;12.75;1.98;;;22.10;99.60;;;;;;6129394;23;20018;-84
2021/08/28 11:20:26;;;;;;;2.22;1.98;;;22.10;99.60;;;;;;6155371;23;20092;-80
2021/08/28 11:22:53;;;;;;;3.70;2.40;;;22.10;99.70;;;;;;6155108;23;20413;-85
2021/08/28 11:25:24;;;;;;;4.25;2.20;;;22.10;99.80;;;;;;6156601;23;20416;-82
2021/08/28 11:27:55;;;;;;;8.32;2.25;;;22.20;99.80;;;;;;6156031;23;20003;-85
2021/08/28 11:30:46;;;;;;;5.63;2.38;;;22.40;99.80;;;;;;6156513;23;20013;-82
2021/08/28 11:33:28;;;;;;;3.55;2.38;;;22.60;99.50;;;;;;6156378;23;20005;-81
2021/08/28 11:35:54;;;;;;;6.45;2.58;;;22.80;99.20;;;;;;6156244;23;20392;-82
2021/08/28 11:38:23;;;;;;;5.45;2.13;;;22.80;99.40;;;;;;6155730;23;20056;-81
2021/08/28 11:41:18;;;;;;;3.22;2.30;;;23.00;98.60;;;;;;6155770;23;20065;-82
2021/08/28 11:43:44;;;;;;;3.08;2.03;;;22.90;98.50;;;;;;6129461;23;20009;-79
2021/08/28 11:46:15;;;;;;;3.53;2.33;;;23.10;98.60;;;;;;6155484;23;20090;-81
2021/08/28 11:48:43;;;;;;;3.40;2.10;;;23.00;98.10;;;;;;6155194;23;20020;-80
2021/08/28 11:51:14;;;;;;;4.38;1.73;;;22.90;98.00;;;;;;6156150;23;20005;-81
2021/08/28 11:53:41;;;;;;;4.05;1.80;;;22.80;98.60;;;;;;6155081;23;20005;-82
2021/08/28 11:56:16;;;;;;;11.65;2.35;;;22.90;98.10;;;;;;6155040;23;20340;-82
2021/08/28 11:58:52;;;;;;;4.80;1.88;;;22.70;98.00;;;;;;6155976;23;20008;-81
2021/08/28 12:01:36;;;;;;;8.00;2.30;;;22.80;98.30;;;;;;6155777;23;20024;-81
2021/08/28 12:04:08;;;;;;;5.50;1.65;;;22.90;97.10;;;;;;6155661;23;20009;-82
2021/08/28 12:06:35;;;;;;;6.43;2.15;;;22.80;96.60;;;;;;6150919;23;20005;-81
2021/08/28 12:09:02;;;;;;;2.97;1.58;;;22.80;96.00;;;;;;6155837;23;20001;-79
2021/08/28 12:11:29;;;;;;;8.80;1.63;;;22.70;95.70;;;;;;6154562;23;20013;-81
2021/08/28 12:13:58;;;;;;;2.30;1.60;;;22.90;96.20;;;;;;6155217;23;20005;-80
2021/08/28 12:16:34;;;;;;;3.05;1.50;;;23.00;95.10;;;;;;6128936;23;20032;-80
2021/08/28 12:19:03;;;;;;;3.40;1.60;;;23.00;95.30;;;;;;6154951;23;20032;-81
2021/08/28 12:21:33;;;;;;;3.05;1.60;;;23.20;95.30;;;;;;6155005;23;20044;-83
2021/08/28 12:24:14;;;;;;;3.05;1.90;;;23.50;95.30;;;;;;6154600;23;20006;-80
2021/08/28 12:26:42;;;;;;;2.97;1.60;;;23.70;94.20;;;;;;6155296;23;20029;-81
2021/08/28 12:29:07;;;;;;;2.58;1.65;;;23.80;94.30;;;;;;6155606;23;19998;-81
2021/08/28 12:31:34;;;;;;;1.83;1.38;;;23.90;94.30;;;;;;6155745;23;20013;-81
2021/08/28 12:34:17;;;;;;;5.30;1.63;;;24.10;93.40;;;;;;6155244;23;20333;-81
2021/08/28 12:36:45;;;;;;;2.78;1.58;;;24.00;93.10;;;;;;6155986;23;20012;-81
2021/08/28 12:39:11;;;;;;;2.55;1.40;;;23.70;93.10;;;;;;6155823;23;20033;-80
2021/08/28 12:41:38;;;;;;;6.22;1.88;;;23.60;92.50;;;;;;6155779;23;20006;-81
2021/08/28 12:44:05;;;;;;;2.80;1.52;;;23.50;92.80;;;;;;6158299;23;20002;-82
2021/08/28 12:46:36;;;;;;;2.03;1.48;;;23.40;92.40;;;;;;6155669;23;20329;-81
2021/08/28 12:49:25;;;;;;;2.30;1.42;;;23.20;92.50;;;;;;6155812;23;20080;-79